Time;durP1;ratioP1;P1;durP2;ratioP2;P2;SDS_P1;SDS_P2;PMS_P1;PMS_P2;Temp;Humidity;BMP_temperature;BMP_pressure;BME280_temperature;BME280_humidity;BME280_pressure;Samples;Min_cycle;Max_cycle;Signal;HPM_P1;HPM_P2
2021/12/25 00:00:59;;;;;;;29.13;19.75;;;;;;;-0.48;100.00;97373.81;10442150;28;20136;-87
2021/12/25 00:06:07;;;;;;;30.17;20.42;;;;;;;-0.47;100.00;97384.28;10440123;28;20056;-86
2021/12/25 00:11:20;;;;;;;27.67;19.25;;;;;;;-0.44;100.00;97393.81;10462390;28;20133;-87
2021/12/25 00:22:48;;;;;;;23.05;16.10;;;;;;;-0.42;100.00;97391.91;10446564;28;20120;-88
2021/12/25 00:28:48;;;;;;;20.13;14.43;;;;;;;-0.43;100.00;97390.22;10438960;28;20045;-87
2021/12/25 00:33:57;;;;;;;16.08;12.68;;;;;;;-0.46;100.00;97395.72;10429652;28;20051;-87
2021/12/25 00:39:33;;;;;;;15.73;12.80;;;;;;;-0.51;100.00;97396.09;10434045;28;20053;-87
2021/12/25 00:44:52;;;;;;;16.85;13.30;;;;;;;-0.45;100.00;97399.19;10441326;28;20048;-87
2021/12/25 00:50:04;;;;;;;13.30;10.77;;;;;;;-0.48;100.00;97402.94;10448201;28;20048;-88
2021/12/25 00:55:20;;;;;;;17.15;12.55;;;;;;;-0.51;100.00;97397.88;10442667;28;20523;-88
2021/12/25 01:00:28;;;;;;;16.65;13.10;;;;;;;-0.53;100.00;97391.88;10470599;28;20048;-89
2021/12/25 01:05:43;;;;;;;15.85;13.30;;;;;;;-0.55;100.00;97404.38;10468724;28;20064;-89
2021/12/25 01:34:28;;;;;;;9.10;5.85;;;;;;;-1.02;100.00;97442.19;10518308;27;20603;-62
2021/12/25 01:39:57;;;;;;;9.57;5.72;;;;;;;-1.15;100.00;97425.53;10483802;28;20048;-68
2021/12/25 01:50:55;;;;;;;6.75;5.68;;;;;;;-1.20;100.00;97440.88;10476773;28;20045;-63
2021/12/25 01:56:00;;;;;;;6.80;5.95;;;;;;;-1.39;100.00;97442.22;10474080;28;20094;-66
2021/12/25 02:01:05;;;;;;;7.90;6.93;;;;;;;-1.41;100.00;97452.88;10472945;28;20049;-63
2021/12/25 02:06:12;;;;;;;6.20;5.60;;;;;;;-1.55;100.00;97456.50;10473246;28;20037;-63
2021/12/25 02:11:16;;;;;;;5.18;4.47;;;;;;;-1.68;100.00;97450.41;10475319;28;20076;-65
2021/12/25 02:16:23;;;;;;;4.07;2.70;;;;;;;-1.94;100.00;97447.81;10475154;28;20370;-64
2021/12/25 02:21:36;;;;;;;3.95;2.30;;;;;;;-2.07;100.00;97450.47;10470481;28;20056;-63
2021/12/25 02:26:43;;;;;;;4.53;2.33;;;;;;;-2.22;100.00;97449.72;10481372;28;20052;-63
2021/12/25 02:31:46;;;;;;;2.47;2.10;;;;;;;-2.31;100.00;97453.00;10535215;28;20386;-64
2021/12/25 02:36:50;;;;;;;2.60;2.00;;;;;;;-2.46;100.00;97473.31;10507484;28;20053;-63
2021/12/25 02:41:53;;;;;;;5.85;2.08;;;;;;;-2.56;100.00;97456.44;10463093;28;20094;-65
2021/12/25 02:47:09;;;;;;;3.05;2.10;;;;;;;-2.58;100.00;97463.59;10449381;28;20858;-64
2021/12/25 02:52:14;;;;;;;4.97;2.33;;;;;;;-2.68;100.00;97455.47;10452642;28;20053;-62
2021/12/25 02:57:17;;;;;;;3.20;2.20;;;;;;;-2.75;100.00;97454.19;10485244;28;20218;-63
2021/12/25 03:02:21;;;;;;;6.03;3.00;;;;;;;-2.73;100.00;97479.50;10500725;28;20583;-66
2021/12/25 03:07:26;;;;;;;4.72;2.88;;;;;;;-2.76;100.00;97476.25;10499886;28;20148;-63
2021/12/25 03:12:36;;;;;;;7.07;3.50;;;;;;;-2.86;100.00;97490.00;10494712;28;20371;-64
2021/12/25 03:17:39;;;;;;;4.80;3.55;;;;;;;-2.76;100.00;97497.34;10504015;28;20063;-63
2021/12/25 03:23:11;;;;;;;7.10;3.90;;;;;;;-2.82;100.00;97494.13;10507268;28;20044;-59
2021/12/25 03:28:15;;;;;;;7.65;5.03;;;;;;;-2.86;100.00;97495.28;10502838;28;20048;-59
2021/12/25 03:33:21;;;;;;;6.97;5.88;;;;;;;-2.84;100.00;97493.38;10497723;28;20301;-63
2021/12/25 03:38:28;;;;;;;7.30;5.35;;;;;;;-2.86;100.00;97494.44;10500965;28;20048;-64
2021/12/25 03:43:31;;;;;;;7.65;5.05;;;;;;;-2.90;100.00;97499.06;10506968;28;20075;-59
2021/12/25 03:49:00;;;;;;;6.07;5.13;;;;;;;-2.88;100.00;97501.59;10498572;28;20595;-64
2021/12/25 03:59:27;;;;;;;10.25;6.25;;;;;;;-2.89;100.00;97478.81;10499400;28;20404;-64
2021/12/25 04:04:35;;;;;;;11.55;8.60;;;;;;;-2.85;100.00;97481.16;10507065;28;20064;-63
2021/12/25 04:09:41;;;;;;;8.50;7.57;;;;;;;-2.83;100.00;97491.63;10492793;28;20107;-60
2021/12/25 04:14:44;;;;;;;8.70;7.80;;;;;;;-2.87;100.00;97496.22;10498860;28;20063;-61
2021/12/25 04:19:49;;;;;;;5.72;3.50;;;;;;;-2.97;100.00;97498.63;10492983;28;20052;-60
2021/12/25 04:24:55;;;;;;;3.50;3.20;;;;;;;-3.00;100.00;97503.25;10514994;28;20052;-59
2021/12/25 04:30:03;;;;;;;6.88;3.47;;;;;;;-3.07;100.00;97507.22;10498900;28;20056;-59
2021/12/25 05:02:08;;;;;;;2.88;2.58;;;;;;;-3.41;100.00;97541.81;10490577;28;20067;-63
2021/12/25 05:07:41;;;;;;;3.38;2.70;;;;;;;-3.60;100.00;97521.88;10498563;28;20113;-62
2021/12/25 05:12:45;;;;;;;4.55;3.30;;;;;;;-3.65;100.00;97541.53;10492090;28;20041;-61
2021/12/25 05:17:50;;;;;;;4.70;3.00;;;;;;;-3.71;100.00;97561.19;10499265;28;20802;-61
2021/12/25 05:22:54;;;;;;;3.50;3.20;;;;;;;-3.79;100.00;97568.69;10494144;28;20123;-62
2021/12/25 05:27:59;;;;;;;4.90;3.15;;;;;;;-3.78;100.00;97583.56;10497214;28;20044;-59
2021/12/25 05:33:03;;;;;;;5.45;3.30;;;;;;;-3.84;100.00;97586.53;10500118;28;20052;-62
2021/12/25 05:38:31;;;;;;;4.78;3.33;;;;;;;-3.98;100.00;97580.31;10498102;28;20508;-62
2021/12/25 05:44:04;;;;;;;6.07;3.10;;;;;;;-4.03;100.00;97577.13;10502156;28;20053;-63
2021/12/25 05:49:24;;;;;;;5.75;4.07;;;;;;;-4.15;100.00;97567.31;10491577;28;20060;-59
2021/12/25 05:54:37;;;;;;;5.00;4.05;;;;;;;-4.23;100.00;97575.66;10502430;28;20508;-59
2021/12/25 05:59:51;;;;;;;5.80;4.15;;;;;;;-4.27;100.00;97588.16;10483423;28;21729;-63
2021/12/25 06:05:17;;;;;;;7.85;5.40;;;;;;;-4.28;100.00;97588.22;10515947;28;20425;-60
2021/12/25 06:10:20;;;;;;;8.38;5.25;;;;;;;-4.34;100.00;97594.69;10507651;28;20135;-59
2021/12/25 06:15:25;;;;;;;9.57;6.10;;;;;;;-4.32;100.00;97608.59;10496220;28;20048;-62
2021/12/25 06:21:01;;;;;;;8.00;6.10;;;;;;;-4.41;100.00;97593.34;10487577;28;20091;-61
2021/12/25 06:26:04;;;;;;;8.10;7.00;;;;;;;-4.48;100.00;97592.84;10518477;28;20104;-59
2021/12/25 06:31:28;;;;;;;10.20;8.10;;;;;;;-4.50;100.00;97608.72;10521221;28;20041;-62
2021/12/25 06:37:00;;;;;;;9.32;7.32;;;;;;;-4.47;100.00;97609.50;10458411;28;20508;-60
2021/12/25 06:42:22;;;;;;;10.10;6.40;;;;;;;-4.47;100.00;97609.50;10507791;28;20048;-60
2021/12/25 06:47:29;;;;;;;10.48;6.57;;;;;;;-4.51;100.00;97603.53;10481821;28;20484;-56
2021/12/25 06:52:35;;;;;;;10.27;8.00;;;;;;;-4.46;100.00;97622.53;10492240;28;20215;-60
2021/12/25 06:57:52;;;;;;;13.32;7.75;;;;;;;-4.45;100.00;97618.09;10500257;28;20842;-61
2021/12/25 07:02:57;;;;;;;12.70;7.70;;;;;;;-4.46;100.00;97625.16;10492024;28;20045;-60
2021/12/25 07:08:19;;;;;;;14.48;8.65;;;;;;;-4.49;100.00;97625.31;10503885;28;20052;-61
2021/12/25 07:13:35;;;;;;;12.82;9.50;;;;;;;-4.46;100.00;97637.44;10499360;28;20513;-56
2021/12/25 07:18:59;;;;;;;10.48;7.97;;;;;;;-4.47;100.00;97641.03;10500346;28;20064;-61
2021/12/25 07:24:21;;;;;;;17.48;8.15;;;;;;;-4.46;100.00;97643.56;10503371;28;20356;-62
2021/12/25 07:29:34;;;;;;;8.95;6.07;;;;;;;-4.47;100.00;97635.78;10496491;28;20048;-56
2021/12/25 07:34:45;;;;;;;13.68;7.35;;;;;;;-4.42;100.00;97649.50;10487392;28;20119;-59
2021/12/25 07:39:49;;;;;;;13.52;8.40;;;;;;;-4.43;100.00;97653.06;10501554;28;20048;-55
2021/12/25 07:44:55;;;;;;;14.05;7.97;;;;;;;-4.42;100.00;97652.13;10494348;28;20361;-60
2021/12/25 07:50:00;;;;;;;10.20;5.88;;;;;;;-4.41;100.00;97643.31;10497704;28;20127;-58
2021/12/25 07:55:03;;;;;;;9.35;5.18;;;;;;;-4.40;100.00;97645.84;10492286;28;20120;-58
2021/12/25 08:00:10;;;;;;;6.97;4.70;;;;;;;-4.37;100.00;97663.25;10498595;28;20043;-57
2021/12/25 08:05:17;;;;;;;7.50;2.88;;;;;;;-4.38;100.00;97672.06;10502585;28;20434;-56
2021/12/25 08:10:21;;;;;;;5.95;2.60;;;;;;;-4.44;100.00;97662.75;10500661;28;20119;-59
2021/12/25 08:15:26;;;;;;;5.32;2.40;;;;;;;-4.43;100.00;97663.56;10487484;28;20552;-61
2021/12/25 08:20:33;;;;;;;4.07;2.10;;;;;;;-4.47;100.00;97657.66;10499379;28;20139;-61
2021/12/25 08:25:54;;;;;;;7.18;2.38;;;;;;;-4.48;100.00;97671.72;10498905;28;20131;-59
2021/12/25 08:31:16;;;;;;;4.57;2.47;;;;;;;-4.50;100.00;97671.81;10485024;28;20064;-60
2021/12/25 08:36:40;;;;;;;3.88;2.33;;;;;;;-4.46;100.00;97683.00;10484175;28;20052;-61
2021/12/25 08:41:44;;;;;;;3.90;2.58;;;;;;;-4.47;100.00;97681.31;10494325;28;20063;-58
2021/12/25 08:46:55;;;;;;;4.85;2.33;;;;;;;-4.43;100.00;97684.59;10497520;28;20067;-59
2021/12/25 08:52:04;;;;;;;3.45;2.03;;;;;;;-4.37;100.00;97693.00;10509664;28;20040;-62
2021/12/25 08:57:08;;;;;;;3.60;2.55;;;;;;;-4.31;100.00;97697.06;10498505;28;20072;-55
2021/12/25 09:02:15;;;;;;;8.18;3.00;;;;;;;-4.25;100.00;97703.75;10497016;28;20557;-60
2021/12/25 09:07:21;;;;;;;6.88;2.97;;;;;;;-4.24;100.00;97706.31;10504308;28;20522;-54
2021/12/25 09:12:25;;;;;;;8.40;2.60;;;;;;;-4.26;100.00;97708.19;10494838;28;20071;-55
2021/12/25 09:17:29;;;;;;;7.15;3.40;;;;;;;-4.21;100.00;97721.91;10497610;28;20071;-57
2021/12/25 09:22:33;;;;;;;5.38;3.10;;;;;;;-4.18;100.00;97715.66;10486334;28;20501;-58
2021/12/25 09:27:36;;;;;;;7.75;3.58;;;;;;;-4.21;100.00;97729.81;10491909;28;20052;-57
2021/12/25 09:32:39;;;;;;;8.45;4.10;;;;;;;-4.23;100.00;97734.28;10494403;28;20923;-58
2021/12/25 09:37:44;;;;;;;5.18;3.70;;;;;;;-4.24;100.00;97732.63;10493038;28;20102;-59
2021/12/25 09:42:47;;;;;;;5.43;3.50;;;;;;;-4.26;100.00;97737.13;10492672;28;20123;-59
2021/12/25 09:47:50;;;;;;;7.25;3.70;;;;;;;-4.22;100.00;97740.41;10496187;28;20496;-58
2021/12/25 09:52:55;;;;;;;6.63;4.03;;;;;;;-4.26;100.00;97745.00;10493046;28;20062;-58
2021/12/25 09:57:57;;;;;;;8.50;4.03;;;;;;;-4.26;100.00;97741.50;10498060;28;20108;-61
2021/12/25 10:03:01;;;;;;;7.78;3.88;;;;;;;-4.20;100.00;97749.06;10499016;28;20489;-59
2021/12/25 10:08:08;;;;;;;10.88;4.38;;;;;;;-4.15;100.00;97754.06;10495192;28;20048;-58
2021/12/25 10:13:23;;;;;;;12.23;4.90;;;;;;;-4.13;100.00;97754.84;10509063;28;20406;-59
2021/12/25 10:18:29;;;;;;;8.43;5.20;;;;;;;-4.04;100.00;97763.06;10499893;28;20421;-58
2021/12/25 10:23:36;;;;;;;9.10;5.03;;;;;;;-4.02;100.00;97761.19;10502199;28;20040;-60
2021/12/25 10:28:41;;;;;;;8.65;5.93;;;;;;;-3.99;100.00;97756.69;10499477;28;20051;-60
2021/12/25 10:33:50;;;;;;;9.45;5.82;;;;;;;-3.96;100.00;97757.38;10505583;28;20715;-58
2021/12/25 10:39:04;;;;;;;8.82;5.93;;;;;;;-3.97;100.00;97754.81;10504742;28;20519;-58
2021/12/25 10:44:15;;;;;;;11.35;5.47;;;;;;;-4.06;100.00;97756.19;10506443;28;20044;-57
2021/12/25 10:49:18;;;;;;;11.60;5.90;;;;;;;-4.08;100.00;97764.19;10497321;28;20127;-58
2021/12/25 10:54:36;;;;;;;10.98;6.22;;;;;;;-4.13;100.00;97755.69;10507792;28;20058;-58
2021/12/25 10:59:46;;;;;;;8.57;5.30;;;;;;;-4.09;100.00;97754.59;10496374;28;20109;-58
2021/12/25 11:04:49;;;;;;;11.55;5.30;;;;;;;-4.11;100.00;97758.22;10500848;28;20149;-58
2021/12/25 11:10:09;;;;;;;10.02;6.13;;;;;;;-4.08;100.00;97758.91;10499527;28;20561;-61
2021/12/25 11:15:16;;;;;;;9.05;5.47;;;;;;;-4.11;100.00;97750.31;10502694;28;20054;-58
2021/12/25 11:20:28;;;;;;;10.48;5.90;;;;;;;-4.00;100.00;97739.22;10499470;28;20045;-63
2021/12/25 11:25:36;;;;;;;8.75;5.50;;;;;;;-3.97;100.00;97744.31;10501972;28;20054;-56
2021/12/25 11:30:42;;;;;;;12.95;6.18;;;;;;;-3.93;100.00;97748.44;10518316;28;20092;-60
2021/12/25 11:35:45;;;;;;;8.07;5.68;;;;;;;-3.94;100.00;97737.06;10521015;28;20052;-61
2021/12/25 11:40:53;;;;;;;10.15;6.15;;;;;;;-3.92;100.00;97745.72;10495630;28;20055;-59
2021/12/25 11:45:56;;;;;;;10.48;5.95;;;;;;;-3.93;100.00;97751.06;10493353;28;20074;-62
2021/12/25 11:51:00;;;;;;;8.45;5.75;;;;;;;-3.92;100.00;97739.59;10497535;28;20505;-63
2021/12/25 12:01:33;;;;;;;9.63;6.13;;;;;;;-3.96;100.00;97746.84;10485934;28;20127;-62
2021/12/25 12:06:58;;;;;;;9.10;6.18;;;;;;;-3.92;100.00;97752.75;10492600;28;20045;-58
2021/12/25 12:12:24;;;;;;;11.07;6.53;;;;;;;-3.85;100.00;97754.13;10498904;28;20040;-58
2021/12/25 12:17:47;;;;;;;12.25;7.28;;;;;;;-3.82;100.00;97748.66;10497368;28;20128;-57
2021/12/25 12:22:59;;;;;;;10.38;7.47;;;;;;;-3.80;100.00;97752.06;10495881;28;20036;-59
2021/12/25 12:28:04;;;;;;;9.48;7.10;;;;;;;-3.77;100.00;97754.53;10482446;28;20131;-60
2021/12/25 12:33:38;;;;;;;10.73;6.07;;;;;;;-3.74;100.00;97753.50;10492294;28;20457;-59
2021/12/25 12:38:43;;;;;;;11.20;6.97;;;;;;;-3.78;100.00;97754.63;10491390;28;20044;-64
2021/12/25 12:44:04;;;;;;;11.05;7.30;;;;;;;-3.83;100.00;97768.06;10496871;28;20051;-60
2021/12/25 12:49:09;;;;;;;10.83;7.33;;;;;;;-3.84;100.00;97766.34;10493692;28;20094;-58
2021/12/25 12:54:39;;;;;;;9.60;6.43;;;;;;;-3.85;100.00;97769.06;10500341;28;20138;-60
2021/12/25 12:59:45;;;;;;;10.93;6.30;;;;;;;-3.71;100.00;97771.75;10492725;28;20056;-59
2021/12/25 13:04:50;;;;;;;8.15;5.63;;;;;;;-3.66;100.00;97768.84;10498717;28;20151;-60
2021/12/25 13:10:02;;;;;;;7.40;5.18;;;;;;;-3.79;100.00;97763.47;10499178;28;20049;-61
2021/12/25 13:15:12;;;;;;;9.27;5.85;;;;;;;-3.77;100.00;97772.13;10501080;28;20543;-63
2021/12/25 13:20:16;;;;;;;12.85;6.03;;;;;;;-3.78;100.00;97773.06;10490469;28;20048;-62
2021/12/25 13:25:20;;;;;;;8.48;5.82;;;;;;;-3.89;100.00;97781.53;10497161;28;20416;-63
2021/12/25 13:30:24;;;;;;;9.73;5.18;;;;;;;-3.90;100.00;97787.75;10491870;28;20052;-57
2021/12/25 13:35:27;;;;;;;9.48;5.88;;;;;;;-3.97;100.00;97781.97;10498147;28;20045;-62
2021/12/25 13:40:30;;;;;;;8.23;5.32;;;;;;;-4.07;100.00;97802.72;10495993;28;20192;-57
2021/12/25 13:45:35;;;;;;;13.73;5.65;;;;;;;-4.14;100.00;97796.06;10498471;28;20492;-58
2021/12/25 13:51:02;;;;;;;9.00;5.90;;;;;;;-4.20;100.00;97806.94;10502923;28;20121;-57
2021/12/25 13:56:12;;;;;;;10.65;6.38;;;;;;;-4.25;100.00;97809.81;10497337;28;20047;-57
2021/12/25 14:01:17;;;;;;;14.10;6.85;;;;;;;-4.33;100.00;97804.13;10494947;28;20055;-62
2021/12/25 14:06:23;;;;;;;11.05;7.10;;;;;;;-4.36;100.00;97809.56;10515003;28;20048;-54
2021/12/25 14:11:28;;;;;;;10.82;6.10;;;;;;;-4.53;100.00;97795.53;10490559;28;20464;-59
2021/12/25 14:16:33;;;;;;;9.90;5.28;;;;;;;-4.64;100.00;97803.97;10486920;28;20116;-59
2021/12/25 14:21:36;;;;;;;7.30;4.82;;;;;;;-4.80;100.00;97809.19;10506219;28;20040;-52
2021/12/25 14:26:39;;;;;;;7.20;5.30;;;;;;;-4.91;100.00;97819.41;10503709;28;20136;-57
2021/12/25 14:31:47;;;;;;;9.20;5.38;;;;;;;-4.93;100.00;97820.44;10499832;28;20048;-53
2021/12/25 14:36:51;;;;;;;8.45;5.35;;;;;;;-5.01;100.00;97842.72;10521859;28;20048;-54
2021/12/25 14:41:55;;;;;;;7.65;5.45;;;;;;;-5.07;100.00;97832.50;10497978;28;20392;-51
2021/12/25 14:47:10;;;;;;;14.15;7.43;;;;;;;-5.24;100.00;97830.72;10520596;28;20048;-61
2021/12/25 14:52:15;;;;;;;14.85;7.50;;;;;;;-5.37;100.00;97834.88;10499685;28;20408;-54
2021/12/25 14:57:23;;;;;;;14.75;11.10;;;;;;;-5.47;100.00;97834.53;10510325;28;20044;-54
2021/12/25 15:02:28;;;;;;;15.32;11.05;;;;;;;-5.58;100.00;97846.38;10507807;28;20416;-57
2021/12/25 15:07:34;;;;;;;13.88;7.88;;;;;;;-5.71;100.00;97837.41;10503248;28;20056;-54
2021/12/25 15:12:39;;;;;;;39.47;22.65;;;;;;;-5.82;100.00;97852.81;10510174;28;20378;-56
2021/12/25 15:17:46;;;;;;;30.27;17.63;;;;;;;-5.95;100.00;97855.16;10506068;28;20047;-56
2021/12/25 15:22:50;;;;;;;21.35;10.90;;;;;;;-6.03;100.00;97855.53;10506040;28;20054;-56
2021/12/25 15:27:54;;;;;;;24.80;12.60;;;;;;;-6.11;100.00;97862.94;10502399;28;20040;-51
2021/12/25 15:33:07;;;;;;;27.73;16.90;;;;;;;-6.16;100.00;97867.50;10505389;28;20067;-57
2021/12/25 15:38:12;;;;;;;24.77;14.90;;;;;;;-6.21;100.00;97867.72;10496392;28;20786;-55
2021/12/25 15:43:15;;;;;;;38.97;18.00;;;;;;;-6.32;100.00;97873.47;10507918;28;20083;-57
2021/12/25 15:48:20;;;;;;;47.95;20.58;;;;;;;-6.36;100.00;97878.03;10506430;28;20048;-55
2021/12/25 15:53:23;;;;;;;67.35;28.05;;;;;;;-6.44;100.00;97884.50;10503199;28;20045;-50
2021/12/25 15:58:26;;;;;;;63.15;27.73;;;;;;;-6.50;100.00;97891.72;10499992;28;20040;-54
2021/12/25 16:03:32;;;;;;;56.90;23.15;;;;;;;-6.59;100.00;97894.75;10496563;28;20048;-57
2021/12/25 16:08:36;;;;;;;32.28;14.85;;;;;;;-6.72;100.00;97888.34;10494299;28;20119;-54
2021/12/25 16:13:39;;;;;;;28.25;13.68;;;;;;;-6.81;100.00;97882.59;10486795;28;20071;-54
2021/12/25 16:18:47;;;;;;;33.05;15.63;;;;;;;-6.88;100.00;97896.84;10509517;28;20500;-51
2021/12/25 16:23:51;;;;;;;30.85;16.15;;;;;;;-6.95;100.00;97898.03;10508089;28;20407;-51
2021/12/25 16:28:54;;;;;;;46.95;21.33;;;;;;;-7.14;100.00;97893.59;10503533;28;20073;-52
2021/12/25 16:33:59;;;;;;;30.80;15.32;;;;;;;-7.21;100.00;97886.88;10529604;28;20044;-56
2021/12/25 16:39:06;;;;;;;47.58;22.80;;;;;;;-7.25;100.00;97897.56;10523833;28;20055;-60
2021/12/25 16:44:11;;;;;;;32.40;16.08;;;;;;;-7.25;100.00;97900.16;10493108;28;20067;-56
2021/12/25 16:49:18;;;;;;;33.65;16.05;;;;;;;-7.32;100.00;97916.13;10489050;28;20067;-58
2021/12/25 16:54:24;;;;;;;26.40;13.43;;;;;;;-7.38;100.00;97918.16;10501210;28;20040;-56
2021/12/25 16:59:30;;;;;;;27.63;14.93;;;;;;;-7.49;100.00;97916.81;10499692;28;20075;-56
2021/12/25 17:04:35;;;;;;;37.55;17.90;;;;;;;-7.55;100.00;97911.81;10502634;28;20124;-57
2021/12/25 17:09:38;;;;;;;32.33;17.70;;;;;;;-7.60;100.00;97911.16;10500693;28;20133;-55
2021/12/25 17:14:43;;;;;;;33.28;18.50;;;;;;;-7.63;100.00;97908.66;10499781;28;20072;-57
2021/12/25 17:19:47;;;;;;;27.90;18.17;;;;;;;-7.69;100.00;97914.13;10497383;28;20105;-52
2021/12/25 17:24:53;;;;;;;39.03;24.43;;;;;;;-7.75;100.00;97910.84;10494857;28;20569;-59
2021/12/25 17:29:56;;;;;;;21.47;13.57;;;;;;;-7.78;100.00;97918.81;10502332;28;20049;-54
2021/12/25 17:35:00;;;;;;;19.43;11.73;;;;;;;-7.83;100.00;97918.16;10499897;28;20043;-57
2021/12/25 17:40:08;;;;;;;31.70;22.00;;;;;;;-7.83;100.00;97928.59;10498701;28;20484;-56
2021/12/25 17:45:12;;;;;;;26.50;16.07;;;;;;;-7.85;100.00;97930.44;10506100;28;20135;-56
2021/12/25 17:50:21;;;;;;;95.27;50.93;;;;;;;-7.84;100.00;97919.06;10494394;28;20048;-55
2021/12/25 17:55:25;;;;;;;31.73;18.83;;;;;;;-7.89;100.00;97923.59;10493195;28;20901;-56
2021/12/25 18:00:32;;;;;;;29.90;17.20;;;;;;;-7.90;100.00;97921.91;10495980;28;20054;-55
2021/12/25 18:05:38;;;;;;;35.43;20.90;;;;;;;-7.94;100.00;97928.16;10502355;28;20103;-59
2021/12/25 18:10:41;;;;;;;32.23;19.30;;;;;;;-7.99;100.00;97932.72;10503307;28;20526;-52
2021/12/25 18:15:45;;;;;;;43.93;24.23;;;;;;;-8.03;100.00;97931.09;10504943;28;20894;-55
2021/12/25 18:20:51;;;;;;;26.67;14.70;;;;;;;-8.17;100.00;97927.25;10506092;28;20051;-52
2021/12/25 18:25:55;;;;;;;28.57;16.00;;;;;;;-8.23;100.00;97922.25;10496687;28;20163;-61
2021/12/25 18:31:00;;;;;;;27.23;14.57;;;;;;;-8.26;100.00;97930.19;10513073;28;20439;-52
2021/12/25 18:36:05;;;;;;;37.77;18.37;;;;;;;-8.31;100.00;97932.16;10500264;28;20044;-53
2021/12/25 18:41:08;;;;;;;41.63;19.93;;;;;;;-8.37;100.00;97923.59;10514846;28;20496;-56
2021/12/25 18:46:12;;;;;;;80.80;35.70;;;;;;;-8.41;100.00;97931.63;10508644;28;20100;-52
2021/12/25 18:51:16;;;;;;;56.33;26.40;;;;;;;-8.42;100.00;97930.78;10502614;28;20047;-58
2021/12/25 18:56:20;;;;;;;26.03;16.17;;;;;;;-8.46;100.00;97929.19;10507053;28;20049;-55
2021/12/25 19:01:23;;;;;;;33.27;19.57;;;;;;;-8.52;100.00;97925.06;10507168;28;20582;-56
2021/12/25 19:06:28;;;;;;;28.53;17.90;;;;;;;-8.52;100.00;97929.41;10502663;28;20041;-60
2021/12/25 19:11:33;;;;;;;25.17;15.10;;;;;;;-8.54;100.00;97932.09;10503020;28;20136;-57
2021/12/25 19:16:36;;;;;;;34.70;16.50;;;;;;;-8.55;100.00;97940.00;10505808;28;20044;-61
2021/12/25 19:21:41;;;;;;;32.17;17.40;;;;;;;-8.57;100.00;97936.56;10505228;28;20123;-63
2021/12/25 19:26:44;;;;;;;28.57;17.00;;;;;;;-8.56;100.00;97939.13;10504454;28;20045;-56
2021/12/25 19:31:47;;;;;;;31.40;17.60;;;;;;;-8.55;100.00;97940.00;10498353;28;20052;-62
2021/12/25 19:36:52;;;;;;;34.63;17.67;;;;;;;-8.57;100.00;97947.03;10508308;28;20143;-62
2021/12/25 19:41:55;;;;;;;33.43;18.77;;;;;;;-8.57;100.00;97937.41;10496662;28;20567;-58
2021/12/25 19:47:00;;;;;;;38.20;19.57;;;;;;;-8.54;100.00;97947.75;10503202;28;20107;-60
2021/12/25 19:52:05;;;;;;;39.70;20.37;;;;;;;-8.50;100.00;97948.50;10498322;28;20043;-59
2021/12/25 19:57:09;;;;;;;39.97;19.90;;;;;;;-8.51;100.00;97944.19;10495020;28;20097;-59
2021/12/25 20:02:12;;;;;;;35.60;19.27;;;;;;;-8.52;100.00;97942.47;10490025;28;20080;-62
2021/12/25 20:07:17;;;;;;;33.07;17.40;;;;;;;-8.62;100.00;97954.16;10493341;28;20037;-63
2021/12/25 20:12:20;;;;;;;41.77;19.37;;;;;;;-8.69;100.00;97936.09;10483171;28;20052;-60
2021/12/25 20:17:31;;;;;;;42.27;20.80;;;;;;;-8.70;100.00;97936.16;10494801;28;20045;-62
2021/12/25 20:22:42;;;;;;;42.17;21.03;;;;;;;-8.68;100.00;97937.81;10506691;28;20049;-59
2021/12/25 20:27:48;;;;;;;47.77;23.07;;;;;;;-8.79;100.00;97934.72;10496524;28;20114;-56
2021/12/25 20:32:53;;;;;;;47.17;22.20;;;;;;;-8.78;100.00;97943.41;10495458;28;20056;-60
2021/12/25 20:37:58;;;;;;;45.50;21.60;;;;;;;-8.80;100.00;97935.63;10505924;28;20052;-59
2021/12/25 20:43:06;;;;;;;47.93;23.13;;;;;;;-8.86;100.00;97933.22;10494189;28;20032;-58
2021/12/25 20:48:09;;;;;;;44.33;23.27;;;;;;;-8.91;100.00;97942.97;10498432;28;20063;-58
2021/12/25 20:53:15;;;;;;;46.40;21.70;;;;;;;-8.89;100.00;97947.22;10495413;28;20044;-59
2021/12/25 20:58:20;;;;;;;47.70;23.03;;;;;;;-8.88;100.00;97954.16;10497523;28;20040;-62
2021/12/25 21:03:25;;;;;;;52.60;24.43;;;;;;;-8.93;100.00;97945.63;10494875;28;20097;-62
2021/12/25 21:08:30;;;;;;;42.13;21.30;;;;;;;-8.95;100.00;97943.97;10514901;28;20069;-62
2021/12/25 21:13:35;;;;;;;51.00;22.70;;;;;;;-9.07;100.00;97946.09;10521844;28;20048;-61
2021/12/25 21:18:40;;;;;;;42.17;21.60;;;;;;;-9.06;100.00;97942.56;10498778;28;20040;-61
2021/12/25 21:23:44;;;;;;;58.33;25.97;;;;;;;-9.03;100.00;97944.22;10496969;28;20178;-63
2021/12/25 21:28:48;;;;;;;58.80;28.83;;;;;;;-9.08;100.00;97940.94;10498207;28;20079;-61
2021/12/25 21:33:51;;;;;;;128.27;48.70;;;;;;;-9.10;100.00;97933.13;10500004;28;20087;-59
2021/12/25 21:38:56;;;;;;;306.37;115.27;;;;;;;-9.08;100.00;97933.09;10493433;28;20420;-59
2021/12/25 21:44:00;;;;;;;378.33;155.83;;;;;;;-8.99;100.00;97938.84;10490831;28;20101;-58
2021/12/25 21:49:05;;;;;;;43.27;23.13;;;;;;;-8.91;100.00;97942.97;10500150;28;20056;-54
2021/12/25 21:54:10;;;;;;;63.13;29.93;;;;;;;-8.91;100.00;97938.59;10495466;28;20047;-56
2021/12/25 21:59:14;;;;;;;59.97;31.10;;;;;;;-8.93;100.00;97935.16;10490915;28;20138;-55
2021/12/25 22:04:25;;;;;;;41.67;19.13;;;;;;;-8.85;100.00;97940.13;10493783;28;20135;-59
2021/12/25 22:09:30;;;;;;;36.10;19.37;;;;;;;-8.88;100.00;97927.22;10493208;28;20063;-58
2021/12/25 22:14:33;;;;;;;33.40;18.50;;;;;;;-8.86;100.00;97923.63;10504348;28;20489;-57
2021/12/25 22:19:36;;;;;;;38.97;19.37;;;;;;;-8.85;100.00;97921.88;10500293;28;20047;-56
2021/12/25 22:24:41;;;;;;;34.00;17.67;;;;;;;-8.84;100.00;97918.34;10500856;28;20052;-59
2021/12/25 22:29:44;;;;;;;36.20;17.37;;;;;;;-8.90;100.00;97927.25;10502975;28;20055;-61
2021/12/25 22:34:47;;;;;;;36.40;17.63;;;;;;;-8.92;100.00;97921.22;10503403;28;20042;-59
2021/12/25 22:39:52;;;;;;;37.00;17.40;;;;;;;-8.96;100.00;97937.91;10514885;28;20096;-57
2021/12/25 22:45:24;;;;;;;32.23;17.30;;;;;;;-8.94;100.00;97930.00;10509503;28;20445;-61
2021/12/25 22:50:28;;;;;;;38.03;18.20;;;;;;;-8.92;100.00;97931.66;10517551;28;20049;-57
2021/12/25 22:55:38;;;;;;;36.87;18.47;;;;;;;-8.94;100.00;97928.28;10521334;28;20763;-58
2021/12/25 23:00:48;;;;;;;38.20;19.15;;;;;;;-8.91;100.00;97927.31;10518696;28;20532;-54
2021/12/25 23:05:52;;;;;;;39.30;17.92;;;;;;;-8.89;100.00;97912.47;10500756;28;20139;-55
2021/12/25 23:10:59;;;;;;;40.40;18.60;;;;;;;-8.87;100.00;97921.06;10501515;28;20127;-57
2021/12/25 23:16:02;;;;;;;38.00;18.07;;;;;;;-8.89;100.00;97920.28;10501651;28;20404;-59
2021/12/25 23:21:12;;;;;;;37.87;18.17;;;;;;;-8.95;100.00;97913.53;10505678;28;20047;-54
2021/12/25 23:26:16;;;;;;;48.43;17.63;;;;;;;-8.99;100.00;97904.06;10504796;28;20048;-54
2021/12/25 23:31:20;;;;;;;43.33;19.60;;;;;;;-8.96;100.00;97903.97;10510509;28;20064;-54
2021/12/25 23:36:25;;;;;;;42.07;18.33;;;;;;;-8.99;100.00;97898.84;10500809;28;20048;-62
2021/12/25 23:41:34;;;;;;;270.80;19.23;;;;;;;-9.06;100.00;97898.22;10506704;28;20338;-58
2021/12/25 23:46:41;;;;;;;66.50;19.07;;;;;;;-9.16;100.00;97891.59;10518156;28;20052;-61
2021/12/25 23:52:00;;;;;;;40.57;17.93;;;;;;;-9.16;100.00;97895.06;10498504;28;20048;-55
2021/12/25 23:57:05;;;;;;;39.90;18.33;;;;;;;-9.15;100.00;97903.75;10501715;28;20114;-55
